createdAt,value
2022-10-23T00:00:16.169Z,2.42
2022-10-23T00:03:03.462Z,2.72
2022-10-23T00:05:51.399Z,2.63
2022-10-23T00:08:39.586Z,2.53
2022-10-23T00:11:29.941Z,2.05
2022-10-23T00:14:19.286Z,2.58
2022-10-23T00:17:08.021Z,2.70
2022-10-23T00:19:55.119Z,2.70
2022-10-23T00:22:42.802Z,2.60
2022-10-23T00:25:30.225Z,2.72
2022-10-23T00:28:17.678Z,2.13
2022-10-23T00:31:05.625Z,2.30
2022-10-23T00:33:54.764Z,2.10
2022-10-23T00:36:42.728Z,2.05
2022-10-23T00:39:31.003Z,2.30
2022-10-23T00:42:19.469Z,2.30
2022-10-23T00:45:15.798Z,2.47
2022-10-23T00:48:04.462Z,1.87
2022-10-23T00:50:54.945Z,1.98
2022-10-23T00:53:43.499Z,2.10
2022-10-23T00:56:35.645Z,1.77
2022-10-23T00:59:23.550Z,2.00
2022-10-23T01:02:11.691Z,1.77
2022-10-23T01:05:01.637Z,1.90
2022-10-23T01:07:57.635Z,1.70
2022-10-23T01:10:49.011Z,2.30
2022-10-23T01:13:44.214Z,2.17
2022-10-23T01:16:40.350Z,1.80
2022-10-23T01:19:44.308Z,1.70
2022-10-23T01:22:50.429Z,1.88
2022-10-23T01:25:56.889Z,1.90
2022-10-23T01:28:51.761Z,1.48
2022-10-23T01:31:46.708Z,1.73
2022-10-23T01:34:44.360Z,1.30
2022-10-23T01:37:43.349Z,1.70
2022-10-23T01:40:41.227Z,1.42
2022-10-23T01:43:34.026Z,1.50
2022-10-23T01:46:24.785Z,1.47
2022-10-23T01:49:15.225Z,1.50
2022-10-23T01:52:07.519Z,1.85
2022-10-23T01:55:00.519Z,1.55
2022-10-23T01:57:51.589Z,1.70
2022-10-23T02:00:41.836Z,1.50
2022-10-23T02:03:34.688Z,1.50
2022-10-23T02:06:22.191Z,1.95
2022-10-23T02:09:11.407Z,1.38
2022-10-23T02:12:04.477Z,1.90
2022-10-23T02:14:55.871Z,1.87
2022-10-23T02:17:48.986Z,1.98
2022-10-23T02:20:42.079Z,1.48
2022-10-23T02:23:34.460Z,1.60
2022-10-23T02:26:27.447Z,1.70
2022-10-23T02:29:21.126Z,1.53
2022-10-23T02:32:11.037Z,1.38
2022-10-23T02:35:00.966Z,1.45
2022-10-23T02:37:55.557Z,1.50
2022-10-23T02:40:48.465Z,1.63
2022-10-23T02:43:41.665Z,1.60
2022-10-23T02:46:36.692Z,1.50
2022-10-23T02:49:30.810Z,2.00
2022-10-23T02:52:24.865Z,1.50
2022-10-23T02:55:26.088Z,1.52
2022-10-23T02:58:20.739Z,2.00
2022-10-23T03:01:14.693Z,1.50
2022-10-23T03:04:04.628Z,1.90
2022-10-23T03:06:52.818Z,1.55
2022-10-23T03:09:40.228Z,1.45
2022-10-23T03:12:29.066Z,1.57
2022-10-23T03:15:16.947Z,1.65
2022-10-23T03:18:04.639Z,1.65
2022-10-23T03:20:52.176Z,1.65
2022-10-23T03:23:42.655Z,1.40
2022-10-23T03:26:33.534Z,1.53
2022-10-23T03:29:22.985Z,1.85
2022-10-23T03:32:10.933Z,1.80
2022-10-23T03:34:58.760Z,1.55
2022-10-23T03:37:46.353Z,1.60
2022-10-23T03:40:34.080Z,1.50
2022-10-23T03:43:21.092Z,1.48
2022-10-23T03:46:13.017Z,1.55
2022-10-23T03:49:00.190Z,1.73
2022-10-23T03:51:52.210Z,1.60
2022-10-23T03:54:41.810Z,1.40
2022-10-23T03:57:31.105Z,1.70
2022-10-23T04:00:18.995Z,1.58
2022-10-23T04:03:09.053Z,1.67
2022-10-23T04:05:57.603Z,1.55
2022-10-23T04:08:45.641Z,1.80
2022-10-23T04:11:36.181Z,1.60
2022-10-23T04:14:23.844Z,1.60
2022-10-23T04:17:11.756Z,1.70
2022-10-23T04:20:00.942Z,1.63
2022-10-23T04:22:48.524Z,1.87
2022-10-23T04:25:35.636Z,1.30
2022-10-23T04:28:24.347Z,1.58
2022-10-23T04:31:12.260Z,1.30
2022-10-23T04:34:02.215Z,1.70
2022-10-23T04:36:52.696Z,1.90
2022-10-23T04:39:40.781Z,1.63
2022-10-23T04:42:28.165Z,1.75
2022-10-23T04:45:22.280Z,1.75
2022-10-23T04:48:09.501Z,1.58
2022-10-23T04:51:15.425Z,1.90
2022-10-23T04:54:12.877Z,2.10
2022-10-23T04:57:14.483Z,1.55
2022-10-23T05:00:28.072Z,1.80
2022-10-23T05:03:17.748Z,1.30
2022-10-23T05:06:06.450Z,1.67
2022-10-23T05:09:15.722Z,1.40
2022-10-23T05:12:27.760Z,1.92
2022-10-23T05:15:15.556Z,1.75
2022-10-23T05:18:11.611Z,1.90
2022-10-23T05:21:02.120Z,1.40
2022-10-23T05:23:50.048Z,1.98
2022-10-23T05:26:39.160Z,1.50
2022-10-23T05:29:28.654Z,1.83
2022-10-23T05:32:18.033Z,2.00
2022-10-23T05:35:09.842Z,1.53
2022-10-23T05:38:00.346Z,1.80
2022-10-23T05:40:47.784Z,1.75
2022-10-23T05:43:39.671Z,2.10
2022-10-23T05:46:31.606Z,2.30
2022-10-23T05:49:34.939Z,2.10
2022-10-23T05:52:31.183Z,2.08
2022-10-23T05:55:37.077Z,1.92
2022-10-23T05:58:52.731Z,1.73
2022-10-23T06:01:49.477Z,2.22
2022-10-23T06:04:45.499Z,2.00
2022-10-23T06:07:44.922Z,2.60
2022-10-23T06:10:32.664Z,2.30
2022-10-23T06:13:24.274Z,1.92
2022-10-23T06:16:15.688Z,2.53
2022-10-23T06:19:03.438Z,2.40
2022-10-23T06:21:50.720Z,2.22
2022-10-23T06:24:38.209Z,2.80
2022-10-23T06:27:31.347Z,2.80
2022-10-23T06:30:19.300Z,2.40
2022-10-23T06:33:09.609Z,2.63
2022-10-23T06:35:57.602Z,2.75
2022-10-23T06:38:45.447Z,2.60
2022-10-23T06:41:33.474Z,2.92
2022-10-23T06:44:21.499Z,3.22
2022-10-23T06:47:14.602Z,3.57
2022-10-23T06:50:26.363Z,3.33
2022-10-23T06:53:14.561Z,3.00
2022-10-23T06:56:09.196Z,2.90
2022-10-23T06:58:57.799Z,3.10
2022-10-23T07:01:45.224Z,3.07
2022-10-23T07:04:33.183Z,2.63
2022-10-23T07:07:24.304Z,3.10
2022-10-23T07:10:15.222Z,2.75
2022-10-23T07:13:04.069Z,3.00
2022-10-23T07:16:00.075Z,2.70
2022-10-23T07:18:49.640Z,2.75
2022-10-23T07:21:49.043Z,2.95
2022-10-23T07:25:08.539Z,2.45
2022-10-23T07:28:00.059Z,2.50
2022-10-23T07:30:58.175Z,2.67
2022-10-23T07:33:50.010Z,3.05
2022-10-23T07:36:39.810Z,2.90
2022-10-23T07:39:27.451Z,2.95
2022-10-23T07:42:16.170Z,3.20
2022-10-23T07:45:04.531Z,2.80
2022-10-23T07:47:53.059Z,2.60
2022-10-23T07:50:44.193Z,2.60
2022-10-23T07:53:31.647Z,2.28
2022-10-23T07:56:29.830Z,2.65
2022-10-23T07:59:39.760Z,2.10
2022-10-23T08:02:30.792Z,2.63
2022-10-23T08:05:20.509Z,2.58
2022-10-23T08:08:14.370Z,2.03
2022-10-23T08:11:04.964Z,2.72
2022-10-23T08:14:05.245Z,2.07
2022-10-23T08:16:55.225Z,2.13
2022-10-23T08:19:46.320Z,2.47
2022-10-23T08:22:35.105Z,2.50
2022-10-23T08:25:25.094Z,2.25
2022-10-23T08:28:15.818Z,1.97
2022-10-23T08:31:14.121Z,1.98
2022-10-23T08:34:07.438Z,2.33
2022-10-23T08:36:55.032Z,1.90
2022-10-23T08:39:44.063Z,2.00
2022-10-23T08:42:49.973Z,1.90
2022-10-23T08:45:42.328Z,1.63
2022-10-23T08:48:44.649Z,2.20
2022-10-23T08:51:56.963Z,2.00
2022-10-23T08:54:56.071Z,1.80
2022-10-23T08:57:50.092Z,1.63
2022-10-23T09:00:37.889Z,1.50
2022-10-23T09:03:26.209Z,1.70
2022-10-23T09:06:26.442Z,1.60
2022-10-23T09:09:32.238Z,1.63
2022-10-23T09:12:22.955Z,1.50
2022-10-23T09:15:24.347Z,1.63
2022-10-23T09:18:15.353Z,1.85
2022-10-23T09:21:02.711Z,1.95
2022-10-23T09:23:50.092Z,1.70
2022-10-23T09:26:42.512Z,1.77
2022-10-23T09:29:33.113Z,1.60
2022-10-23T09:32:21.856Z,1.20
2022-10-23T09:35:22.933Z,1.50
2022-10-23T09:38:26.659Z,2.28
2022-10-23T09:41:17.988Z,1.50
2022-10-23T09:44:20.501Z,1.48
2022-10-23T09:47:12.219Z,1.65
2022-10-23T09:49:59.515Z,1.20
2022-10-23T09:52:46.994Z,1.30
2022-10-23T09:55:34.334Z,1.10
2022-10-23T09:58:26.422Z,1.50
2022-10-23T10:01:25.549Z,1.27
2022-10-23T10:04:16.166Z,1.20
2022-10-23T10:07:06.850Z,1.33
2022-10-23T10:09:55.405Z,1.50
2022-10-23T10:12:50.970Z,1.17
2022-10-23T10:15:49.015Z,1.08
2022-10-23T10:18:43.519Z,1.30
2022-10-23T10:21:41.048Z,1.30
2022-10-23T10:24:36.148Z,1.30
2022-10-23T10:27:37.612Z,1.20
2022-10-23T10:30:26.256Z,1.42
2022-10-23T10:33:23.284Z,1.13
2022-10-23T10:39:26.730Z,1.23
2022-10-23T10:42:38.375Z,1.33
2022-10-23T10:45:34.309Z,1.27
2022-10-23T10:48:42.439Z,1.30
2022-10-23T10:52:00.996Z,1.50
2022-10-23T10:54:58.169Z,1.30
2022-10-23T10:57:48.348Z,1.00
2022-10-23T11:00:36.602Z,1.20
2022-10-23T11:03:37.590Z,1.40
2022-10-23T11:06:31.243Z,0.90
2022-10-23T11:09:23.147Z,1.17
2022-10-23T11:12:18.839Z,1.30
2022-10-23T11:15:17.350Z,1.40
2022-10-23T11:18:14.159Z,1.10
2022-10-23T11:21:13.012Z,1.08
2022-10-23T11:24:23.099Z,1.03
2022-10-23T11:27:27.295Z,1.30
2022-10-23T11:30:23.218Z,1.17
2022-10-23T11:33:39.277Z,1.10
2022-10-23T11:36:44.419Z,1.23
2022-10-23T11:39:34.114Z,1.10
2022-10-23T11:42:46.689Z,1.20
2022-10-23T11:45:37.075Z,0.70
2022-10-23T11:48:37.389Z,1.40
2022-10-23T11:51:30.210Z,1.00
2022-10-23T11:54:27.229Z,1.20
2022-10-23T11:57:17.837Z,1.20
2022-10-23T12:00:23.300Z,0.90
2022-10-23T12:03:20.867Z,1.27
2022-10-23T12:06:16.554Z,1.05
2022-10-23T12:09:09.519Z,0.93
2022-10-23T12:12:06.711Z,1.05
2022-10-23T12:14:54.638Z,1.00
2022-10-23T12:17:45.283Z,1.20
2022-10-23T12:20:45.309Z,0.98
2022-10-23T12:23:52.139Z,0.90
2022-10-23T12:26:54.517Z,0.82
2022-10-23T12:29:59.568Z,1.08
2022-10-23T12:33:12.400Z,1.55
2022-10-23T12:36:19.318Z,1.10
2022-10-23T12:39:28.099Z,1.03
2022-10-23T12:42:21.221Z,0.90
2022-10-23T12:45:19.764Z,1.10
2022-10-23T12:48:20.658Z,0.90
2022-10-23T12:51:08.511Z,1.00
2022-10-23T12:53:56.079Z,1.23
2022-10-23T12:56:45.150Z,0.90
2022-10-23T12:59:38.518Z,1.10
2022-10-23T13:02:28.789Z,1.02
2022-10-23T13:05:21.751Z,1.20
2022-10-23T13:08:12.126Z,0.87
2022-10-23T13:11:21.858Z,1.10
2022-10-23T13:14:14.657Z,1.17
2022-10-23T13:17:03.576Z,1.00
2022-10-23T13:19:50.881Z,1.20
2022-10-23T13:22:42.055Z,1.07
2022-10-23T13:25:32.344Z,1.05
2022-10-23T13:28:25.113Z,1.13
2022-10-23T13:31:31.548Z,1.23
2022-10-23T13:34:24.230Z,1.30
2022-10-23T13:37:27.920Z,1.10
2022-10-23T13:40:25.056Z,1.30
2022-10-23T13:43:18.952Z,1.30
2022-10-23T13:48:59.070Z,0.80
2022-10-23T13:51:51.267Z,0.90
2022-10-23T13:54:38.488Z,0.90
2022-10-23T13:57:27.618Z,0.95
2022-10-23T14:00:16.443Z,0.93
2022-10-23T14:03:03.627Z,0.90
2022-10-23T14:05:51.411Z,1.00
2022-10-23T14:08:39.336Z,0.70
2022-10-23T14:11:27.919Z,0.98
2022-10-23T14:14:16.577Z,1.00
2022-10-23T14:17:03.852Z,1.00
2022-10-23T14:19:51.450Z,1.07
2022-10-23T14:22:38.775Z,1.00
2022-10-23T14:25:26.327Z,1.13
2022-10-23T14:28:13.698Z,1.05
2022-10-23T14:31:06.584Z,0.80
2022-10-23T14:33:56.118Z,0.90
2022-10-23T14:36:50.243Z,0.93
2022-10-23T14:39:38.447Z,0.85
2022-10-23T14:42:29.367Z,1.00
2022-10-23T14:45:19.823Z,0.90
2022-10-23T14:48:08.707Z,1.07
2022-10-23T14:50:56.319Z,0.60
2022-10-23T14:53:44.198Z,0.50
2022-10-23T14:56:34.242Z,0.93
2022-10-23T14:59:21.988Z,0.80
2022-10-23T15:02:11.722Z,0.60
2022-10-23T15:05:00.959Z,0.82
2022-10-23T15:07:48.586Z,1.02
2022-10-23T15:10:39.158Z,0.70
2022-10-23T15:13:27.134Z,0.82
2022-10-23T15:16:15.016Z,0.87
2022-10-23T15:19:02.641Z,0.80
2022-10-23T15:21:52.493Z,0.98
2022-10-23T15:24:40.243Z,0.63
2022-10-23T15:27:27.883Z,0.80
2022-10-23T15:30:15.450Z,1.00
2022-10-23T15:33:02.998Z,0.90
2022-10-23T15:35:51.677Z,0.88
2022-10-23T15:38:40.542Z,0.90
2022-10-23T15:41:29.943Z,0.70
2022-10-23T15:44:20.142Z,0.80
2022-10-23T15:47:07.479Z,1.00
2022-10-23T15:49:54.527Z,1.02
2022-10-23T15:52:42.332Z,1.10
2022-10-23T15:55:31.690Z,1.20
2022-10-23T15:58:19.612Z,1.10
2022-10-23T16:01:07.593Z,0.93
2022-10-23T16:03:54.979Z,1.00
2022-10-23T16:06:42.220Z,1.27
2022-10-23T16:09:31.027Z,1.10
2022-10-23T16:12:19.684Z,1.13
2022-10-23T16:15:09.606Z,0.70
2022-10-23T16:17:57.906Z,1.27
2022-10-23T16:20:45.674Z,0.90
2022-10-23T16:23:33.630Z,1.05
2022-10-23T16:26:22.471Z,0.93
2022-10-23T16:29:12.938Z,1.10
2022-10-23T16:32:00.455Z,1.30
2022-10-23T16:34:47.651Z,1.00
2022-10-23T16:37:35.588Z,1.02
2022-10-23T16:40:28.888Z,1.20
2022-10-23T16:43:35.635Z,1.05
2022-10-23T16:46:44.569Z,1.00
2022-10-23T16:49:32.365Z,1.10
2022-10-23T16:52:19.969Z,1.13
2022-10-23T16:55:08.635Z,1.07
2022-10-23T16:57:57.662Z,1.20
2022-10-23T17:00:45.536Z,1.90
2022-10-23T17:03:37.489Z,1.52
2022-10-23T17:06:27.146Z,1.40
2022-10-23T17:09:17.233Z,1.50
2022-10-23T17:12:05.158Z,2.85
2022-10-23T17:14:52.600Z,1.27
2022-10-23T17:17:40.051Z,1.00
2022-10-23T17:20:28.815Z,1.27
2022-10-23T17:23:16.388Z,1.73
2022-10-23T17:26:05.117Z,1.42
2022-10-23T17:28:52.915Z,1.33
2022-10-23T17:31:43.568Z,1.40
2022-10-23T17:34:30.644Z,1.30
2022-10-23T17:37:19.808Z,1.30
2022-10-23T17:40:08.246Z,1.63
2022-10-23T17:42:55.707Z,1.90
2022-10-23T17:45:45.267Z,1.83
2022-10-23T17:48:33.580Z,1.80
2022-10-23T17:51:23.737Z,1.90
2022-10-23T17:54:14.587Z,2.10
2022-10-23T17:57:01.972Z,2.03
2022-10-23T17:59:49.566Z,1.50
2022-10-23T18:02:37.231Z,1.67
2022-10-23T18:05:24.710Z,1.60
2022-10-23T18:08:12.223Z,1.60
2022-10-23T18:11:01.223Z,1.85
2022-10-23T18:13:48.980Z,1.70
2022-10-23T18:16:38.237Z,1.60
2022-10-23T18:19:25.528Z,1.73
2022-10-23T18:22:13.425Z,1.63
2022-10-23T18:25:01.347Z,1.73
2022-10-23T18:27:49.776Z,1.67
2022-10-23T18:33:27.226Z,1.37
2022-10-23T18:36:16.630Z,1.63
2022-10-23T18:39:05.701Z,2.20
2022-10-23T18:41:55.891Z,1.40
2022-10-23T18:44:50.029Z,1.60
2022-10-23T18:47:37.417Z,1.13
2022-10-23T18:50:24.738Z,1.33
2022-10-23T18:53:12.508Z,1.10
2022-10-23T18:56:00.717Z,1.65
2022-10-23T18:58:48.139Z,1.50
2022-10-23T19:01:37.763Z,1.70
2022-10-23T19:04:25.665Z,1.42
2022-10-23T19:07:12.998Z,2.10
2022-10-23T19:10:00.096Z,1.83
2022-10-23T19:12:47.706Z,1.33
2022-10-23T19:15:35.860Z,1.70
2022-10-23T19:18:24.375Z,1.80
2022-10-23T19:21:12.871Z,1.83
2022-10-23T19:24:03.143Z,1.40
2022-10-23T19:26:51.344Z,2.05
2022-10-23T19:29:41.462Z,1.57
2022-10-23T19:32:28.617Z,1.77
2022-10-23T19:35:20.267Z,1.75
2022-10-23T19:38:07.752Z,1.50
2022-10-23T19:40:55.181Z,1.55
2022-10-23T19:43:43.079Z,1.90
2022-10-23T19:46:30.800Z,1.58
2022-10-23T19:49:19.086Z,2.05
2022-10-23T19:52:07.783Z,2.05
2022-10-23T19:54:55.927Z,1.98
2022-10-23T19:57:44.049Z,1.80
2022-10-23T20:00:31.754Z,1.73
2022-10-23T20:03:19.734Z,1.67
2022-10-23T20:06:10.340Z,1.77
2022-10-23T20:08:59.387Z,1.60
2022-10-23T20:11:49.338Z,2.37
2022-10-23T20:14:36.761Z,1.52
2022-10-23T20:17:24.435Z,1.90
2022-10-23T20:20:11.717Z,1.98
2022-10-23T20:22:59.963Z,1.95
2022-10-23T20:25:48.992Z,1.70
2022-10-23T20:28:37.625Z,2.08
2022-10-23T20:31:26.814Z,1.98
2022-10-23T20:34:14.538Z,1.50
2022-10-23T20:37:01.673Z,2.05
2022-10-23T20:39:49.076Z,1.70
2022-10-23T20:42:38.144Z,1.80
2022-10-23T20:45:25.571Z,1.83
2022-10-23T20:48:12.518Z,1.52
2022-10-23T20:51:03.755Z,1.55
2022-10-23T20:53:53.214Z,1.77
2022-10-23T20:56:41.078Z,1.50
2022-10-23T20:59:30.404Z,1.77
2022-10-23T21:02:18.238Z,1.52
2022-10-23T21:05:06.433Z,2.00
2022-10-23T21:07:54.084Z,2.93
2022-10-23T21:10:47.295Z,1.80
2022-10-23T21:13:35.205Z,1.90
2022-10-23T21:16:28.434Z,1.50
2022-10-23T21:19:17.038Z,1.50
2022-10-23T21:22:04.286Z,1.57
2022-10-23T21:24:52.161Z,1.50
2022-10-23T21:27:39.938Z,1.60
2022-10-23T21:30:27.254Z,1.40
2022-10-23T21:33:16.086Z,1.98
2022-10-23T21:36:19.003Z,1.77
2022-10-23T21:39:06.890Z,1.40
2022-10-23T21:41:54.068Z,2.05
2022-10-23T21:44:41.785Z,1.50
2022-10-23T21:47:31.286Z,1.50
2022-10-23T21:50:23.395Z,1.40
2022-10-23T21:53:11.096Z,1.70
2022-10-23T21:56:04.591Z,1.50
2022-10-23T21:58:51.959Z,1.40
2022-10-23T22:01:39.962Z,2.28
2022-10-23T22:04:27.698Z,1.50
2022-10-23T22:07:17.207Z,1.67
2022-10-23T22:10:05.527Z,1.40
2022-10-23T22:12:53.060Z,1.55
2022-10-23T22:15:39.912Z,1.50
2022-10-23T22:18:27.612Z,1.60
2022-10-23T22:21:16.896Z,1.13
2022-10-23T22:24:06.024Z,1.20
2022-10-23T22:26:55.408Z,2.28
2022-10-23T22:29:42.958Z,1.20
2022-10-23T22:32:30.276Z,1.17
2022-10-23T22:35:17.549Z,1.30
2022-10-23T22:38:05.048Z,1.30
2022-10-23T22:40:53.845Z,1.20
2022-10-23T22:43:41.097Z,0.90
2022-10-23T22:46:30.538Z,1.00
2022-10-23T22:49:18.271Z,1.00
2022-10-23T22:52:05.875Z,0.80
2022-10-23T22:54:52.963Z,1.00
2022-10-23T22:57:41.860Z,1.30
2022-10-23T23:00:29.498Z,0.80
2022-10-23T23:03:17.127Z,1.00
2022-10-23T23:06:05.482Z,1.25
2022-10-23T23:08:53.496Z,1.00
2022-10-23T23:11:51.203Z,0.90
2022-10-23T23:14:42.388Z,0.97
2022-10-23T23:17:29.875Z,1.30
2022-10-23T23:20:17.529Z,1.00
2022-10-23T23:23:04.823Z,0.90
2022-10-23T23:25:52.284Z,0.80
2022-10-23T23:28:39.507Z,0.90
2022-10-23T23:31:28.112Z,0.90
2022-10-23T23:34:15.724Z,0.90
2022-10-23T23:37:03.054Z,0.88
2022-10-23T23:39:50.659Z,0.77
2022-10-23T23:42:38.190Z,0.73
2022-10-23T23:45:25.845Z,0.60
2022-10-23T23:48:14.568Z,1.10
2022-10-23T23:51:02.124Z,0.80
2022-10-23T23:53:50.598Z,0.85
2022-10-23T23:56:38.100Z,0.80
2022-10-23T23:59:25.501Z,0.95
